createdAt,value
2022-12-14T00:01:45.055Z,100402.31
2022-12-14T00:04:16.952Z,100401.34
2022-12-14T00:06:44.711Z,100407.81
2022-12-14T00:09:13.896Z,100406.72
2022-12-14T00:11:41.669Z,100405.84
2022-12-14T00:14:09.415Z,100423.59
2022-12-14T00:16:37.983Z,100417.66
2022-12-14T00:19:06.303Z,100420.31
2022-12-14T00:21:34.150Z,100435.91
2022-12-14T00:24:02.017Z,100435.34
2022-12-14T00:26:32.732Z,100454.25
2022-12-14T00:29:02.621Z,100435.25
2022-12-14T00:31:31.301Z,100444.72
2022-12-14T00:33:59.760Z,100443.66
2022-12-14T00:36:27.888Z,100449.16
2022-12-14T00:38:55.573Z,100440.47
2022-12-14T00:41:23.315Z,100438.13
2022-12-14T00:43:52.420Z,100438.13
2022-12-14T00:46:20.550Z,100444.75
2022-12-14T00:48:48.352Z,100432.81
2022-12-14T00:51:16.079Z,100441.69
2022-12-14T00:53:45.083Z,100447.72
2022-12-14T00:56:12.853Z,100453.44
2022-12-14T00:58:40.875Z,100449.25
2022-12-14T01:01:13.548Z,100434.22
2022-12-14T01:03:41.659Z,100437.41
2022-12-14T01:06:15.107Z,100442.09
2022-12-14T01:08:42.817Z,100426.00
2022-12-14T01:11:11.660Z,100430.28
2022-12-14T01:13:40.272Z,100437.72
2022-12-14T01:16:11.955Z,100446.06
2022-12-14T01:18:42.140Z,100447.53
2022-12-14T01:21:11.986Z,100435.25
2022-12-14T01:23:39.746Z,100446.28
2022-12-14T01:26:07.529Z,100431.50
2022-12-14T01:28:36.047Z,100439.59
2022-12-14T01:31:08.112Z,100429.03
2022-12-14T01:33:37.311Z,100427.97
2022-12-14T01:36:07.250Z,100436.44
2022-12-14T01:38:35.086Z,100419.75
2022-12-14T01:41:03.235Z,100425.50
2022-12-14T01:43:49.615Z,100396.09
2022-12-14T01:46:22.496Z,100409.34
2022-12-14T01:48:55.848Z,100400.63
2022-12-14T01:51:25.572Z,100406.50
2022-12-14T01:53:54.236Z,100404.25
2022-12-14T01:56:22.097Z,100412.97
2022-12-14T01:58:50.599Z,100416.53
2022-12-14T02:01:18.580Z,100393.91
2022-12-14T02:03:50.150Z,100402.31
2022-12-14T02:06:22.847Z,100387.19
2022-12-14T02:08:53.639Z,100377.22
2022-12-14T02:11:30.388Z,100364.50
2022-12-14T02:13:58.145Z,100366.81
2022-12-14T02:16:26.035Z,100359.31
2022-12-14T02:18:53.775Z,100364.91
2022-12-14T02:21:37.646Z,100348.00
2022-12-14T02:24:43.425Z,100361.31
2022-12-14T02:27:34.690Z,100352.94
2022-12-14T02:30:08.746Z,100359.91
2022-12-14T02:32:56.824Z,100361.84
2022-12-14T02:35:33.379Z,100353.16
2022-12-14T02:38:14.921Z,100357.22
2022-12-14T02:40:53.054Z,100360.53
2022-12-14T02:43:29.787Z,100352.16
2022-12-14T02:46:09.907Z,100366.97
2022-12-14T02:48:42.923Z,100371.56
2022-12-14T02:51:25.195Z,100375.34
2022-12-14T02:53:57.920Z,100387.66
2022-12-14T02:56:32.816Z,100400.56
2022-12-14T02:59:02.627Z,100399.59
2022-12-14T03:01:32.689Z,100408.81
2022-12-14T03:04:03.432Z,100402.00
2022-12-14T03:06:31.635Z,100408.19
2022-12-14T03:09:02.917Z,100424.16
2022-12-14T03:11:41.140Z,100408.09
2022-12-14T03:14:14.616Z,100400.50
2022-12-14T03:16:47.389Z,100390.88
2022-12-14T03:19:21.709Z,100395.09
2022-12-14T03:21:54.351Z,100394.91
2022-12-14T03:24:26.670Z,100386.28
2022-12-14T03:26:59.666Z,100392.16
2022-12-14T03:29:29.911Z,100395.81
2022-12-14T03:32:03.520Z,100371.03
2022-12-14T03:34:36.594Z,100371.53
2022-12-14T03:37:10.744Z,100357.09
2022-12-14T03:39:41.231Z,100361.41
2022-12-14T03:42:16.028Z,100364.38
2022-12-14T03:44:50.074Z,100351.00
2022-12-14T03:47:36.236Z,100335.38
2022-12-14T03:50:11.380Z,100343.72
2022-12-14T03:52:43.745Z,100350.22
2022-12-14T03:55:24.252Z,100330.81
2022-12-14T03:58:05.847Z,100332.03
2022-12-14T04:00:41.586Z,100321.03
2022-12-14T04:03:19.799Z,100294.56
2022-12-14T04:05:53.861Z,100288.31
2022-12-14T04:08:29.926Z,100268.88
2022-12-14T04:11:17.225Z,100261.81
2022-12-14T04:14:13.183Z,100256.84
2022-12-14T04:17:01.311Z,100257.56
2022-12-14T04:19:39.690Z,100251.38
2022-12-14T04:22:12.137Z,100241.06
2022-12-14T04:25:01.451Z,100253.66
2022-12-14T04:27:37.397Z,100253.78
2022-12-14T04:30:05.975Z,100254.00
2022-12-14T04:32:38.430Z,100243.22
2022-12-14T04:35:13.073Z,100258.34
2022-12-14T04:37:43.937Z,100247.66
2022-12-14T04:40:14.172Z,100234.41
2022-12-14T04:42:47.200Z,100230.09
2022-12-14T04:45:20.232Z,100227.09
2022-12-14T04:47:57.998Z,100216.47
2022-12-14T04:50:31.898Z,100223.16
2022-12-14T04:53:04.875Z,100224.53
2022-12-14T04:55:37.754Z,100220.56
2022-12-14T04:58:11.591Z,100214.63
2022-12-14T05:00:50.187Z,100223.25
2022-12-14T05:03:25.181Z,100212.28
2022-12-14T05:06:07.017Z,100227.69
2022-12-14T05:08:55.821Z,100214.63
2022-12-14T05:14:20.467Z,100218.47
2022-12-14T05:16:49.660Z,100225.66
2022-12-14T05:19:17.808Z,100226.13
2022-12-14T05:21:49.492Z,100227.09
2022-12-14T05:24:17.970Z,100224.19
2022-12-14T05:26:45.889Z,100216.88
2022-12-14T05:29:14.986Z,100231.84
2022-12-14T05:31:42.743Z,100226.78
2022-12-14T05:34:17.001Z,100221.81
2022-12-14T05:36:46.188Z,100213.78
2022-12-14T05:39:14.402Z,100209.84
2022-12-14T05:41:42.347Z,100199.00
2022-12-14T05:44:10.407Z,100205.31
2022-12-14T05:46:38.435Z,100201.06
2022-12-14T05:49:06.181Z,100194.00
2022-12-14T05:51:34.212Z,100206.22
2022-12-14T05:54:03.340Z,100196.47
2022-12-14T05:56:31.032Z,100141.66
2022-12-14T05:58:58.840Z,100141.22
2022-12-14T06:01:26.646Z,100149.91
2022-12-14T06:03:54.565Z,100153.16
2022-12-14T06:06:22.475Z,100160.22
2022-12-14T06:08:50.556Z,100175.91
2022-12-14T06:11:21.335Z,100189.00
2022-12-14T06:13:49.454Z,100186.69
2022-12-14T06:16:19.020Z,100184.28
2022-12-14T06:18:48.374Z,100170.25
2022-12-14T06:21:18.342Z,100162.50
2022-12-14T06:23:46.156Z,100167.44
2022-12-14T06:26:15.065Z,100169.28
2022-12-14T06:28:44.169Z,100171.41
2022-12-14T06:31:16.771Z,100187.88
2022-12-14T06:33:45.223Z,100165.94
2022-12-14T06:36:18.858Z,100186.75
2022-12-14T06:38:47.075Z,100188.97
2022-12-14T06:41:15.017Z,100171.38
2022-12-14T06:43:44.537Z,100172.06
2022-12-14T06:46:18.901Z,100179.13
2022-12-14T06:48:50.797Z,100163.66
2022-12-14T06:51:18.562Z,100163.00
2022-12-14T06:53:46.459Z,100157.03
2022-12-14T06:56:16.163Z,100149.16
2022-12-14T06:58:46.086Z,100147.94
2022-12-14T07:01:16.091Z,100143.22
2022-12-14T07:03:44.791Z,100140.38
2022-12-14T07:06:12.515Z,100141.53
2022-12-14T07:08:40.587Z,100138.16
2022-12-14T07:11:11.490Z,100140.22
2022-12-14T07:13:40.218Z,100132.91
2022-12-14T07:16:13.845Z,100127.75
2022-12-14T07:18:41.608Z,100136.84
2022-12-14T07:21:11.092Z,100137.66
2022-12-14T07:23:40.151Z,100122.72
2022-12-14T07:26:09.920Z,100130.63
2022-12-14T07:28:38.773Z,100129.44
2022-12-14T07:31:08.601Z,100135.09
2022-12-14T07:33:38.288Z,100137.44
2022-12-14T07:36:07.783Z,100142.06
2022-12-14T07:38:36.776Z,100155.22
2022-12-14T07:41:06.606Z,100167.56
2022-12-14T07:43:35.124Z,100180.28
2022-12-14T07:46:05.667Z,100178.25
2022-12-14T07:48:34.058Z,100191.00
2022-12-14T07:51:08.522Z,100201.38
2022-12-14T07:53:37.583Z,100197.28
2022-12-14T07:56:07.525Z,100196.38
2022-12-14T07:58:36.702Z,100206.06
2022-12-14T08:01:12.703Z,100212.66
2022-12-14T08:03:41.871Z,100222.19
2022-12-14T08:06:12.478Z,100232.84
2022-12-14T08:08:40.738Z,100225.41
2022-12-14T08:11:09.226Z,100222.78
2022-12-14T08:13:38.823Z,100232.06
2022-12-14T08:16:09.538Z,100269.81
2022-12-14T08:18:37.598Z,100293.94
2022-12-14T08:21:07.011Z,100338.25
2022-12-14T08:23:36.512Z,100352.34
2022-12-14T08:26:05.723Z,100376.44
2022-12-14T08:28:35.528Z,100409.00
2022-12-14T08:31:07.064Z,100409.16
2022-12-14T08:33:35.956Z,100442.31
2022-12-14T08:36:08.167Z,100429.38
2022-12-14T08:38:37.773Z,100440.47
2022-12-14T08:41:06.321Z,100447.13
2022-12-14T08:43:34.098Z,100427.66
2022-12-14T08:46:02.117Z,100437.03
2022-12-14T08:48:29.844Z,100433.63
2022-12-14T08:51:03.399Z,100447.56
2022-12-14T08:53:31.900Z,100454.63
2022-12-14T08:56:05.869Z,100447.44
2022-12-14T08:58:34.709Z,100435.66
2022-12-14T09:01:04.324Z,100441.53
2022-12-14T09:03:32.969Z,100439.91
2022-12-14T09:06:04.089Z,100444.63
2022-12-14T09:08:32.479Z,100442.72
2022-12-14T09:11:02.155Z,100400.28
2022-12-14T09:13:30.780Z,100437.97
2022-12-14T09:16:00.220Z,100441.78
2022-12-14T09:18:29.215Z,100435.78
2022-12-14T09:20:58.475Z,100421.28
2022-12-14T09:23:28.915Z,100444.25
2022-12-14T09:26:03.027Z,100434.31
2022-12-14T09:28:32.039Z,100432.78
2022-12-14T09:31:02.140Z,100451.91
2022-12-14T09:33:31.556Z,100426.88
2022-12-14T09:36:03.687Z,100420.59
2022-12-14T09:38:33.548Z,100425.25
2022-12-14T09:41:07.703Z,100430.38
2022-12-14T09:43:41.384Z,100426.56
2022-12-14T09:46:28.493Z,100426.31
2022-12-14T09:48:58.370Z,100431.09
2022-12-14T09:51:33.017Z,100437.69
2022-12-14T09:54:06.169Z,100441.53
2022-12-14T09:56:35.986Z,100432.25
2022-12-14T09:59:04.566Z,100433.34
2022-12-14T10:02:29.114Z,100428.06
2022-12-14T10:04:52.911Z,100425.09
2022-12-14T10:07:26.633Z,100422.47
2022-12-14T10:10:02.773Z,100430.97
2022-12-14T10:12:47.967Z,100414.88
2022-12-14T10:15:25.896Z,100424.97
2022-12-14T10:18:57.844Z,100427.53
2022-12-14T10:21:13.797Z,100418.19
2022-12-14T10:23:48.622Z,100411.09
2022-12-14T10:26:20.461Z,100413.28
2022-12-14T10:29:00.937Z,100413.28
2022-12-14T10:31:36.027Z,100406.16
2022-12-14T10:34:18.962Z,100407.34
2022-12-14T10:36:54.156Z,100408.09
2022-12-14T10:39:41.074Z,100400.88
2022-12-14T10:42:17.831Z,100404.34
2022-12-14T10:45:23.296Z,100401.09
2022-12-14T10:47:47.738Z,100396.31
2022-12-14T10:50:25.183Z,100400.72
2022-12-14T10:52:54.877Z,100402.28
2022-12-14T10:55:29.216Z,100393.66
2022-12-14T10:57:56.973Z,100398.41
2022-12-14T11:00:26.153Z,100394.13
2022-12-14T11:02:56.664Z,100396.53
2022-12-14T11:05:36.721Z,100396.63
2022-12-14T11:08:06.689Z,100396.72
2022-12-14T11:10:36.081Z,100379.56
2022-12-14T11:13:08.051Z,100393.66
2022-12-14T11:15:39.388Z,100401.25
2022-12-14T11:18:28.636Z,100390.16
2022-12-14T11:20:58.427Z,100390.28
2022-12-14T11:23:27.933Z,100376.97
2022-12-14T11:25:58.886Z,100382.97
2022-12-14T11:28:36.650Z,100367.69
2022-12-14T11:31:09.843Z,100376.50
2022-12-14T11:33:40.675Z,100370.06
2022-12-14T11:36:09.935Z,100362.69
2022-12-14T11:38:37.804Z,100380.47
2022-12-14T11:41:10.944Z,100372.09
2022-12-14T11:43:40.057Z,100362.69
2022-12-14T11:46:09.247Z,100359.59
2022-12-14T11:48:39.378Z,100366.00
2022-12-14T11:51:12.137Z,100357.94
2022-12-14T11:53:40.397Z,100353.50
2022-12-14T11:56:13.774Z,100366.84
2022-12-14T11:58:50.093Z,100352.28
2022-12-14T12:01:24.436Z,100366.31
2022-12-14T12:03:56.913Z,100358.28
2022-12-14T12:06:27.529Z,100356.75
2022-12-14T12:08:57.736Z,100362.56
2022-12-14T12:11:28.599Z,100352.56
2022-12-14T12:14:01.587Z,100351.69
2022-12-14T12:16:32.874Z,100343.84
2022-12-14T12:19:11.803Z,100341.50
2022-12-14T12:21:42.692Z,100355.16
2022-12-14T12:24:18.343Z,100345.81
2022-12-14T12:26:51.104Z,100350.47
2022-12-14T12:29:25.234Z,100346.97
2022-12-14T12:31:59.122Z,100339.66
2022-12-14T12:34:31.406Z,100340.53
2022-12-14T12:37:25.956Z,100331.63
2022-12-14T12:39:58.108Z,100322.97
2022-12-14T12:42:35.668Z,100324.88
2022-12-14T12:45:09.744Z,100329.84
2022-12-14T12:47:47.526Z,100323.63
2022-12-14T12:50:18.257Z,100331.03
2022-12-14T12:53:02.482Z,100326.44
2022-12-14T12:55:33.456Z,100320.97
2022-12-14T12:58:04.937Z,100321.56
2022-12-14T13:00:33.769Z,100331.75
2022-12-14T13:03:10.093Z,100315.31
2022-12-14T13:05:47.447Z,100314.81
2022-12-14T13:08:23.701Z,100314.16
2022-12-14T13:11:25.736Z,100320.78
2022-12-14T13:13:46.641Z,100312.47
2022-12-14T13:16:23.020Z,100314.00
2022-12-14T13:19:18.997Z,100313.78
2022-12-14T13:21:51.834Z,100300.03
2022-12-14T13:24:21.569Z,100302.44
2022-12-14T13:27:17.519Z,100300.75
2022-12-14T13:30:04.447Z,100298.72
2022-12-14T13:32:46.290Z,100295.66
2022-12-14T13:35:34.742Z,100299.59
2022-12-14T13:38:33.722Z,100296.66
2022-12-14T13:41:26.803Z,100291.78
2022-12-14T13:44:17.156Z,100294.59
2022-12-14T13:46:45.063Z,100302.56
2022-12-14T13:49:21.468Z,100283.50
2022-12-14T13:51:52.389Z,100298.25
2022-12-14T13:54:27.617Z,100295.00
2022-12-14T13:57:04.540Z,100293.41
2022-12-14T13:59:36.267Z,100291.03
2022-12-14T14:02:06.133Z,100292.00
2022-12-14T14:04:35.699Z,100300.69
2022-12-14T14:07:49.881Z,100299.50
2022-12-14T14:10:31.491Z,100297.66
2022-12-14T14:12:59.621Z,100300.13
2022-12-14T14:15:52.006Z,100308.75
2022-12-14T14:18:29.538Z,100307.94
2022-12-14T14:21:30.024Z,100305.59
2022-12-14T14:24:01.465Z,100304.81
2022-12-14T14:26:31.275Z,100297.25
2022-12-14T14:29:15.556Z,100299.19
2022-12-14T14:31:52.598Z,100297.56
2022-12-14T14:34:25.536Z,100292.56
2022-12-14T14:36:53.476Z,100292.69
2022-12-14T14:39:56.077Z,100289.41
2022-12-14T14:42:26.620Z,100288.03
2022-12-14T14:44:57.894Z,100273.66
2022-12-14T14:47:31.069Z,100267.88
2022-12-14T14:50:01.445Z,100272.22
2022-12-14T14:53:02.842Z,100267.13
2022-12-14T14:56:12.832Z,100257.09
2022-12-14T14:58:41.890Z,100252.84
2022-12-14T15:01:19.451Z,100243.00
2022-12-14T15:03:53.143Z,100269.31
2022-12-14T15:06:24.801Z,100265.47
2022-12-14T15:08:59.699Z,100252.63
2022-12-14T15:11:36.278Z,100244.44
2022-12-14T15:14:14.940Z,100229.13
2022-12-14T15:16:45.039Z,100226.78
2022-12-14T15:19:25.530Z,100243.84
2022-12-14T15:21:56.525Z,100241.00
2022-12-14T15:24:26.107Z,100236.81
2022-12-14T15:26:55.286Z,100235.31
2022-12-14T15:29:28.014Z,100230.56
2022-12-14T15:32:00.501Z,100216.53
2022-12-14T15:34:29.062Z,100214.91
2022-12-14T15:36:57.597Z,100208.09
2022-12-14T15:39:39.802Z,100217.00
2022-12-14T15:42:15.003Z,100216.00
2022-12-14T15:44:50.450Z,100225.34
2022-12-14T15:47:26.622Z,100174.28
2022-12-14T15:50:00.659Z,100133.13
2022-12-14T15:52:31.778Z,100150.91
2022-12-14T15:55:00.754Z,100152.47
2022-12-14T15:57:29.893Z,100148.53
2022-12-14T15:59:58.993Z,100137.25
2022-12-14T16:02:31.487Z,100119.84
2022-12-14T16:05:03.894Z,100112.78
2022-12-14T16:07:37.522Z,100110.59
2022-12-14T16:10:15.854Z,100095.44
2022-12-14T16:12:47.830Z,100100.84
2022-12-14T16:15:19.996Z,100090.25
2022-12-14T16:17:47.953Z,100095.44
2022-12-14T16:20:22.532Z,100089.28
2022-12-14T16:23:22.779Z,100078.84
2022-12-14T16:25:52.256Z,100079.50
2022-12-14T16:28:27.044Z,100080.34
2022-12-14T16:30:59.346Z,100066.44
2022-12-14T16:33:29.479Z,100052.91
2022-12-14T16:36:03.761Z,100043.97
2022-12-14T16:38:32.336Z,100037.63
2022-12-14T16:41:02.816Z,100042.28
2022-12-14T16:43:35.334Z,100046.31
2022-12-14T16:46:20.880Z,100039.47
2022-12-14T16:49:23.176Z,100033.97
2022-12-14T16:52:07.254Z,99995.06
2022-12-14T16:54:35.883Z,99999.66
2022-12-14T16:57:06.690Z,99989.44
2022-12-14T16:59:42.124Z,99988.78
2022-12-14T17:02:29.660Z,99975.88
2022-12-14T17:04:59.502Z,99981.09
2022-12-14T17:07:29.671Z,99973.41
2022-12-14T17:09:57.426Z,99968.75
2022-12-14T17:12:27.135Z,99962.59
2022-12-14T17:14:56.286Z,99962.34
2022-12-14T17:17:33.861Z,99963.81
2022-12-14T17:20:02.648Z,99960.91
2022-12-14T17:22:34.088Z,99957.81
2022-12-14T17:25:02.539Z,99956.91
2022-12-14T17:27:30.510Z,99946.41
2022-12-14T17:29:59.600Z,99962.28
2022-12-14T17:32:30.172Z,99945.28
2022-12-14T17:34:58.157Z,99952.25
2022-12-14T17:37:32.449Z,99950.38
2022-12-14T17:40:04.017Z,99941.66
2022-12-14T17:42:31.844Z,99956.97
2022-12-14T17:45:01.673Z,99952.38
2022-12-14T17:47:29.493Z,99947.47
2022-12-14T17:49:57.273Z,99952.38
2022-12-14T17:52:28.185Z,99967.38
2022-12-14T17:54:56.138Z,99959.22
2022-12-14T17:57:26.207Z,99957.34
2022-12-14T18:00:14.246Z,99942.00
2022-12-14T18:02:45.438Z,99946.81
2022-12-14T18:05:19.595Z,99945.28
2022-12-14T18:07:49.884Z,99927.63
2022-12-14T18:10:19.407Z,99927.84
2022-12-14T18:12:57.424Z,99931.47
2022-12-14T18:15:27.560Z,99929.72
2022-12-14T18:17:56.846Z,99946.94
2022-12-14T18:20:25.329Z,99948.84
2022-12-14T18:22:53.355Z,99947.59
2022-12-14T18:25:31.655Z,99959.41
2022-12-14T18:28:00.608Z,99939.63
2022-12-14T18:30:34.885Z,99924.25
2022-12-14T18:33:07.976Z,99915.88
2022-12-14T18:35:37.103Z,99911.28
2022-12-14T18:38:04.830Z,99911.06
2022-12-14T18:40:32.600Z,99912.50
2022-12-14T18:43:00.471Z,99903.75
2022-12-14T18:45:30.248Z,99892.06
2022-12-14T18:47:59.166Z,99887.38
2022-12-14T18:50:29.110Z,99893.81
2022-12-14T18:52:57.786Z,99904.69
2022-12-14T18:55:27.500Z,99892.38
2022-12-14T18:57:57.150Z,99882.06
2022-12-14T19:00:26.689Z,99883.34
2022-12-14T19:02:58.167Z,99882.44
2022-12-14T19:05:28.010Z,99880.97
2022-12-14T19:07:57.643Z,99876.38
2022-12-14T19:10:27.491Z,99877.22
2022-12-14T19:12:55.593Z,99891.16
2022-12-14T19:15:25.249Z,99888.31
2022-12-14T19:17:53.928Z,99891.59
2022-12-14T19:20:22.702Z,99891.84
2022-12-14T19:22:52.020Z,99893.94
2022-12-14T19:25:21.027Z,99886.31
2022-12-14T19:30:37.343Z,99895.88
2022-12-14T19:33:05.128Z,99896.50
2022-12-14T19:35:32.953Z,99884.19
2022-12-14T19:38:02.068Z,99889.34
2022-12-14T19:40:30.816Z,99888.00
2022-12-14T19:42:59.362Z,99883.03
2022-12-14T19:45:27.129Z,99888.97
2022-12-14T19:47:54.879Z,99895.03
2022-12-14T19:50:22.638Z,99904.34
2022-12-14T19:52:52.457Z,99910.53
2022-12-14T19:55:21.675Z,99906.00
2022-12-14T19:57:49.441Z,99903.97
2022-12-14T20:00:17.470Z,99911.56
2022-12-14T20:02:45.342Z,99903.72
2022-12-14T20:05:17.816Z,99896.16
2022-12-14T20:07:45.623Z,99894.69
2022-12-14T20:10:13.346Z,99891.63
2022-12-14T20:12:43.135Z,99891.59
2022-12-14T20:15:11.908Z,99890.09
2022-12-14T20:17:39.634Z,99880.13
2022-12-14T20:20:08.525Z,99881.16
2022-12-14T20:22:36.319Z,99882.28
2022-12-14T20:25:04.067Z,99873.44
2022-12-14T20:27:34.820Z,99878.59
2022-12-14T20:30:09.895Z,99880.13
2022-12-14T20:32:37.706Z,99874.09
2022-12-14T20:35:06.368Z,99874.34
2022-12-14T20:37:34.128Z,99883.25
2022-12-14T20:40:01.851Z,99879.41
2022-12-14T20:42:29.599Z,99879.00
2022-12-14T20:44:58.181Z,99886.19
2022-12-14T20:47:29.464Z,99891.81
2022-12-14T20:49:57.214Z,99896.44
2022-12-14T20:52:25.017Z,99893.63
2022-12-14T20:54:53.558Z,99898.53
2022-12-14T20:57:21.415Z,99907.09
2022-12-14T20:59:49.629Z,99905.00
2022-12-14T21:02:18.843Z,99908.84
2022-12-14T21:04:48.140Z,99898.63
2022-12-14T21:07:16.000Z,99903.75
2022-12-14T21:09:44.089Z,99907.91
2022-12-14T21:12:23.740Z,99903.31
2022-12-14T21:14:53.126Z,99900.97
2022-12-14T21:17:22.474Z,99903.69
2022-12-14T21:19:51.735Z,99903.34
2022-12-14T21:22:22.082Z,99898.66
2022-12-14T21:25:03.112Z,99902.94
2022-12-14T21:27:34.558Z,99909.31
2022-12-14T21:30:02.301Z,99904.50
2022-12-14T21:32:30.056Z,99913.56
2022-12-14T21:34:59.172Z,99911.06
2022-12-14T21:37:27.091Z,99917.09
2022-12-14T21:39:55.856Z,99910.09
2022-12-14T21:42:23.511Z,99918.81
2022-12-14T21:44:52.814Z,99914.53
2022-12-14T21:47:22.571Z,99915.94
2022-12-14T21:49:50.367Z,99914.47
2022-12-14T21:52:21.473Z,99916.94
2022-12-14T21:54:49.689Z,99913.38
2022-12-14T21:57:36.756Z,99914.41
2022-12-14T22:00:05.816Z,99909.00
2022-12-14T22:02:33.665Z,99917.47
2022-12-14T22:05:01.641Z,99922.81
2022-12-14T22:07:33.381Z,99928.06
2022-12-14T22:10:01.226Z,99928.00
2022-12-14T22:12:29.173Z,99932.81
2022-12-14T22:14:56.917Z,99925.22
2022-12-14T22:17:24.655Z,99926.66
2022-12-14T22:19:54.311Z,99918.97
2022-12-14T22:22:22.221Z,99917.06
2022-12-14T22:24:52.013Z,99926.53
2022-12-14T22:27:20.451Z,99922.34
2022-12-14T22:29:48.190Z,99919.03
2022-12-14T22:32:17.372Z,99916.34
2022-12-14T22:34:45.178Z,99914.56
2022-12-14T22:37:14.690Z,99919.13
2022-12-14T22:39:42.699Z,99918.34
2022-12-14T22:42:11.817Z,99918.03
2022-12-14T22:44:40.259Z,99912.16
2022-12-14T22:47:07.996Z,99917.84
2022-12-14T22:49:35.719Z,99917.97
2022-12-14T22:52:03.443Z,99922.78
2022-12-14T22:54:31.606Z,99919.72
2022-12-14T22:57:03.806Z,99921.31
2022-12-14T22:59:36.727Z,99934.44
2022-12-14T23:02:05.221Z,99924.34
2022-12-14T23:04:33.127Z,99933.22
2022-12-14T23:07:00.985Z,99935.88
2022-12-14T23:09:46.155Z,99936.16
2022-12-14T23:12:31.391Z,99940.06
2022-12-14T23:15:18.130Z,99937.78
2022-12-14T23:18:03.395Z,99940.28
2022-12-14T23:20:48.829Z,99923.66
2022-12-14T23:23:34.550Z,99916.97
2022-12-14T23:26:20.714Z,99924.03
2022-12-14T23:29:06.085Z,99928.06
2022-12-14T23:31:52.571Z,99929.44
2022-12-14T23:34:37.861Z,99936.06
2022-12-14T23:37:23.311Z,99938.06
2022-12-14T23:40:08.654Z,99933.69
2022-12-14T23:42:53.929Z,99940.72
2022-12-14T23:45:39.311Z,99943.34
2022-12-14T23:48:26.405Z,99933.59
2022-12-14T23:51:11.703Z,99929.88
2022-12-14T23:53:56.941Z,99921.72
2022-12-14T23:56:42.248Z,99925.09
2022-12-14T23:59:31.846Z,99928.38
